Prior Lake, MN (55372)

2:04 PM CST on February 14, 2016 (GMT -0600)
ARS Carriage Hills | | Change Station
CLOSE
Current Station
Personal Weather Station
Location: Prior Lake, MN
Elevation: 975 ft
Nearby Weather Stations

Elev 975 ft 44.74 °N, 93.44 °W | Updated 18 seconds ago

Snow
Snow
18.0 °F
Feels Like 4 °F
N
15.0
Wind Variable Wind from ESE
Gusts 15.0 mph

Today
High -- | Low -- °F
--% Chance of Precip.
Yesterday
High -- | Low -- °F
Precip. -- in
Pressure 29.97 in
Visibility 4.0 miles
Clouds Overcast 2200 ft
Windchill 4 °F
Dew Point 12 °F
Humidity 76%
Rainfall 0.00 in
Snow Depth Not available.
7:16 AM 5:40 PM
Waxing Crescent, 45% visible
METAR KFCM 141953Z 15012KT 4SM -SN OVC022 M07/M12 A2992 RMK AO2 SLP148 P0000 T10721117
Pressure 29.97 in
Visibility 4.0 miles
Clouds Overcast 2200 ft
Windchill 4 °F
Dew Point 12 °F
Humidity 76%
Rainfall 0.00 in
Snow Depth Not available.
7:16 AM 5:40 PM
Waxing Crescent, 45% visible
METAR KFCM 141953Z 15012KT 4SM -SN OVC022 M07/M12 A2992 RMK AO2 SLP148 P0000 T10721117

10-Day Weather Forecast

Almanac

Astronomy

Feb. 14, 2016 Rise Set
Actual Time
Civil Twilight
Nautical Twilight
Astronomical Twilight
Moon
Length of Visible Light
Length of Day
Tomorrow will be .
, % of the Moon is Illuminated

Today's Extremes

State Highs State Lows

Community

WunderPhotos

Upload Photos

1,892,880 photos uploaded!

WunderBlog® & News

Nearby

Air Quality

  Air Quality AQ Index Pollutant
Not available.

Snow Depth

Station Depth Elevation

Earthquake Activity

City Distance Mag. Time & Date
Minimum magnitude displayed is 2.5.

Coastal Water Temperatures

Place Temperature

Stations

Nearby Weather Stations

Station Location Temp. Windchill Dew Point Humidity Wind Precip. Elev Updated Type
                   

Watches & Warnings

There are currently no watches in effect.